Time;durP1;ratioP1;P1;durP2;ratioP2;P2;SDS_P1;SDS_P2;PMS_P1;PMS_P2;Temp;Humidity;BMP_temperature;BMP_pressure;BME280_temperature;BME280_humidity;BME280_pressure;Samples;Min_cycle;Max_cycle;Signal;HPM_P1;HPM_P2
2021/04/22 00:00:24;;;;;;;3.27;3.13;;;8.50;78.50;;;;;;5095987;28;20189;-69
2021/04/22 00:02:50;;;;;;;6.53;3.90;;;8.50;78.90;;;;;;5100661;28;20744;-69
2021/04/22 00:05:25;;;;;;;3.97;3.60;;;8.40;79.90;;;;;;5093347;28;20704;-70
2021/04/22 00:07:52;;;;;;;3.50;3.00;;;8.40;79.40;;;;;;5095134;28;20212;-69
2021/04/22 00:10:40;;;;;;;5.77;3.40;;;8.30;80.00;;;;;;5094734;28;20188;-69
2021/04/22 00:13:07;;;;;;;3.93;3.60;;;8.30;80.00;;;;;;5100481;28;20355;-69
2021/04/22 00:15:33;;;;;;;4.00;3.70;;;8.30;79.90;;;;;;5102290;28;20621;-69
2021/04/22 00:17:59;;;;;;;3.83;3.53;;;8.20;80.40;;;;;;5098543;28;20670;-70
2021/04/22 00:20:26;;;;;;;4.27;3.90;;;8.20;80.40;;;;;;5098117;28;20197;-69
2021/04/22 00:22:53;;;;;;;4.00;3.60;;;8.10;80.40;;;;;;5093982;28;20181;-71
2021/04/22 00:25:19;;;;;;;6.83;2.87;;;8.10;80.60;;;;;;5080088;28;20185;-71
2021/04/22 00:27:45;;;;;;;5.80;4.00;;;8.10;80.30;;;;;;5094351;28;20174;-70
2021/04/22 00:30:14;;;;;;;3.50;3.20;;;8.00;80.70;;;;;;5098728;28;20551;-71
2021/04/22 00:32:41;;;;;;;3.27;3.07;;;8.00;80.80;;;;;;5091682;28;20701;-71
2021/04/22 00:35:09;;;;;;;3.27;3.07;;;8.00;80.70;;;;;;5101554;28;20245;-70
2021/04/22 00:37:35;;;;;;;3.27;2.97;;;7.90;81.10;;;;;;5097484;28;20178;-71
2021/04/22 00:40:04;;;;;;;4.43;4.03;;;7.90;81.10;;;;;;5103788;28;20185;-71
2021/04/22 00:42:30;;;;;;;6.10;3.90;;;7.90;81.30;;;;;;5100458;28;20363;-70
2021/04/22 00:44:56;;;;;;;4.00;3.60;;;7.80;81.40;;;;;;5099298;28;20290;-70
2021/04/22 00:47:22;;;;;;;5.20;3.80;;;7.80;81.40;;;;;;5096744;28;20273;-70
2021/04/22 00:49:48;;;;;;;8.50;4.33;;;7.80;81.30;;;;;;5092613;28;20217;-71
2021/04/22 00:52:14;;;;;;;5.83;3.70;;;7.80;81.60;;;;;;5100139;28;20655;-70
2021/04/22 00:54:40;;;;;;;4.63;4.23;;;7.70;82.00;;;;;;5100624;28;20756;-70
2021/04/22 00:57:07;;;;;;;5.20;4.70;;;7.70;82.40;;;;;;5095878;28;20185;-70
2021/04/22 00:59:33;;;;;;;5.60;4.17;;;7.70;82.60;;;;;;5103733;28;20242;-70
2021/04/22 01:01:59;;;;;;;5.87;4.17;;;7.70;82.70;;;;;;5095536;28;20178;-71
2021/04/22 01:04:25;;;;;;;4.27;3.97;;;7.60;82.80;;;;;;5100923;28;20178;-70
2021/04/22 01:06:51;;;;;;;10.70;6.23;;;7.60;82.90;;;;;;5088723;28;20259;-71
2021/04/22 01:09:16;;;;;;;5.00;4.23;;;7.60;83.20;;;;;;5100939;28;20206;-70
2021/04/22 01:11:42;;;;;;;5.77;5.00;;;7.60;83.10;;;;;;5095446;28;20255;-70
2021/04/22 01:14:08;;;;;;;6.37;5.07;;;7.50;83.50;;;;;;5096765;28;20247;-70
2021/04/22 01:16:35;;;;;;;6.83;5.47;;;7.50;83.60;;;;;;5094027;28;20181;-70
2021/04/22 01:19:01;;;;;;;5.87;4.87;;;7.50;83.50;;;;;;5097513;28;20270;-71
2021/04/22 01:21:27;;;;;;;7.13;4.97;;;7.50;83.30;;;;;;5096250;28;20265;-71
2021/04/22 01:23:54;;;;;;;8.80;5.30;;;7.40;83.40;;;;;;5099738;28;20615;-70
2021/04/22 01:26:22;;;;;;;7.53;5.50;;;7.40;83.30;;;;;;5096988;28;20173;-70
2021/04/22 01:28:49;;;;;;;4.80;4.40;;;7.40;83.60;;;;;;5099317;28;20201;-71
2021/04/22 01:31:15;;;;;;;6.63;4.90;;;7.40;83.60;;;;;;5095699;28;20184;-70
2021/04/22 01:33:41;;;;;;;4.93;4.43;;;7.30;83.80;;;;;;5093585;28;20268;-71
2021/04/22 01:36:08;;;;;;;4.90;4.47;;;7.30;84.00;;;;;;5100927;28;20185;-71
2021/04/22 01:38:35;;;;;;;7.77;5.73;;;7.30;84.50;;;;;;5100703;28;20182;-70
2021/04/22 01:41:01;;;;;;;8.97;5.03;;;7.30;84.30;;;;;;5098949;28;21018;-71
2021/04/22 01:43:28;;;;;;;4.53;4.13;;;7.20;84.50;;;;;;5094615;28;20655;-70
2021/04/22 01:45:54;;;;;;;7.47;5.00;;;7.20;84.70;;;;;;5099210;28;20265;-70
2021/04/22 01:48:20;;;;;;;9.33;5.17;;;7.20;84.70;;;;;;5100009;28;20300;-70
2021/04/22 01:50:46;;;;;;;6.07;4.33;;;7.20;84.70;;;;;;5099510;28;20182;-71
2021/04/22 01:53:12;;;;;;;4.37;4.03;;;7.20;84.70;;;;;;5100211;28;20547;-71
2021/04/22 01:55:46;;;;;;;6.87;5.07;;;7.10;84.80;;;;;;5097134;28;20178;-70
2021/04/22 01:58:18;;;;;;;6.37;4.43;;;7.10;84.90;;;;;;5097699;28;20181;-70
2021/04/22 02:00:46;;;;;;;5.80;5.20;;;7.10;84.80;;;;;;5100782;28;20217;-70
2021/04/22 02:03:12;;;;;;;7.63;5.17;;;7.10;85.00;;;;;;5096159;28;20186;-70
2021/04/22 02:05:39;;;;;;;4.33;3.93;;;7.10;84.90;;;;;;5099148;28;20212;-70
2021/04/22 02:08:07;;;;;;;6.07;4.37;;;7.10;84.50;;;;;;5099199;28;20209;-70
2021/04/22 02:10:34;;;;;;;5.63;4.37;;;7.00;84.70;;;;;;5095959;28;20238;-70
2021/04/22 02:12:59;;;;;;;7.47;5.03;;;7.00;85.20;;;;;;5101554;28;20197;-70
2021/04/22 02:15:30;;;;;;;6.17;4.87;;;7.00;85.20;;;;;;5099398;28;20598;-71
2021/04/22 02:17:56;;;;;;;7.57;4.27;;;7.00;84.80;;;;;;5097310;28;20183;-70
2021/04/22 02:20:22;;;;;;;5.10;4.60;;;6.90;85.40;;;;;;5102085;28;20186;-71
2021/04/22 02:22:49;;;;;;;6.00;4.60;;;6.90;85.80;;;;;;5101505;28;20204;-71
2021/04/22 02:25:17;;;;;;;5.17;4.67;;;6.90;86.00;;;;;;5102963;28;20621;-70
2021/04/22 02:27:44;;;;;;;6.67;5.00;;;6.90;85.60;;;;;;5101330;28;20239;-71
2021/04/22 02:30:16;;;;;;;6.33;4.00;;;6.80;85.90;;;;;;5099691;28;20189;-70
2021/04/22 02:32:42;;;;;;;6.93;4.77;;;6.80;85.30;;;;;;5098500;28;20233;-70
2021/04/22 02:35:10;;;;;;;8.00;4.13;;;6.70;86.00;;;;;;5098262;28;20178;-70
2021/04/22 02:37:36;;;;;;;5.70;4.60;;;6.70;85.80;;;;;;5103203;28;20209;-70
2021/04/22 02:40:05;;;;;;;8.87;5.50;;;6.70;85.50;;;;;;5103447;28;20184;-70
2021/04/22 02:42:31;;;;;;;4.27;3.87;;;6.70;85.30;;;;;;5103196;28;20188;-70
2021/04/22 02:44:57;;;;;;;6.20;4.77;;;6.70;85.90;;;;;;5104335;28;20666;-70
2021/04/22 02:47:22;;;;;;;6.00;4.30;;;6.60;86.00;;;;;;5104953;28;20304;-70
2021/04/22 02:49:48;;;;;;;5.97;4.93;;;6.60;86.30;;;;;;5098922;28;20307;-70
2021/04/22 02:52:14;;;;;;;5.67;4.83;;;6.60;86.30;;;;;;5099147;28;20185;-70
2021/04/22 02:54:39;;;;;;;6.77;5.53;;;6.60;86.30;;;;;;5099033;28;20260;-71
2021/04/22 02:57:05;;;;;;;9.53;5.97;;;6.60;86.60;;;;;;5102806;28;20197;-70
2021/04/22 02:59:31;;;;;;;10.03;4.87;;;6.50;86.70;;;;;;5101205;28;20190;-71
2021/04/22 03:01:57;;;;;;;8.33;6.03;;;6.50;86.70;;;;;;5079547;28;20182;-70
2021/04/22 03:04:22;;;;;;;7.60;5.73;;;6.50;86.80;;;;;;5099746;28;21584;-70
2021/04/22 03:06:48;;;;;;;6.33;4.77;;;6.50;86.70;;;;;;5102724;28;20181;-70
2021/04/22 03:09:14;;;;;;;8.93;4.80;;;6.50;86.70;;;;;;5078821;28;20224;-70
2021/04/22 03:11:39;;;;;;;8.93;4.63;;;6.50;87.10;;;;;;5096552;28;20201;-70
2021/04/22 03:14:05;;;;;;;4.70;4.33;;;6.50;87.20;;;;;;5096871;28;20178;-70
2021/04/22 03:16:31;;;;;;;6.27;4.07;;;6.40;87.20;;;;;;5099490;28;20659;-70
2021/04/22 03:18:57;;;;;;;7.43;4.30;;;6.40;87.00;;;;;;5097979;28;20186;-70
2021/04/22 03:21:22;;;;;;;5.53;3.93;;;6.30;87.20;;;;;;5096077;28;20284;-70
2021/04/22 03:23:48;;;;;;;5.70;4.40;;;6.30;87.20;;;;;;5099330;28;20926;-70
2021/04/22 03:26:14;;;;;;;4.90;4.60;;;6.30;87.40;;;;;;5091120;28;20173;-70
2021/04/22 03:28:39;;;;;;;9.47;4.90;;;6.20;87.30;;;;;;5097350;28;20206;-70
2021/04/22 03:31:05;;;;;;;5.03;4.07;;;6.20;87.30;;;;;;5097593;28;20270;-70
2021/04/22 03:33:31;;;;;;;4.67;3.33;;;6.20;87.40;;;;;;5103871;28;20674;-70
2021/04/22 03:35:56;;;;;;;6.63;4.43;;;6.10;87.70;;;;;;5099395;28;20178;-70
2021/04/22 03:38:22;;;;;;;4.87;4.23;;;6.10;87.80;;;;;;5099816;28;21748;-70
2021/04/22 03:40:48;;;;;;;4.57;4.23;;;6.10;87.60;;;;;;5096269;28;20679;-71
2021/04/22 03:43:13;;;;;;;6.33;3.53;;;6.10;87.70;;;;;;5099434;28;20226;-69
2021/04/22 03:45:39;;;;;;;6.13;4.67;;;6.10;87.60;;;;;;5101177;28;20178;-69
2021/04/22 03:48:05;;;;;;;9.47;4.87;;;6.10;87.60;;;;;;5096472;28;20617;-69
2021/04/22 03:50:31;;;;;;;4.33;4.00;;;6.10;87.60;;;;;;5096884;28;20190;-70
2021/04/22 03:52:57;;;;;;;5.63;4.73;;;6.10;87.70;;;;;;5075090;28;20583;-69
2021/04/22 03:55:23;;;;;;;6.30;5.10;;;6.10;87.70;;;;;;5094229;28;20259;-69
2021/04/22 03:57:49;;;;;;;8.67;4.47;;;6.10;87.70;;;;;;5098528;28;20173;-70
2021/04/22 04:00:17;;;;;;;11.17;4.77;;;6.10;87.70;;;;;;5099216;28;20181;-69
2021/04/22 04:02:43;;;;;;;5.13;4.63;;;6.10;87.70;;;;;;5095628;28;20178;-69
2021/04/22 04:05:09;;;;;;;6.27;5.10;;;6.10;87.60;;;;;;5100164;28;20178;-70
2021/04/22 04:07:35;;;;;;;7.30;5.17;;;6.10;87.60;;;;;;5099370;28;20181;-69
2021/04/22 04:10:01;;;;;;;7.30;5.27;;;6.10;87.90;;;;;;5094877;28;20247;-70
2021/04/22 04:12:27;;;;;;;6.30;5.70;;;6.10;87.90;;;;;;5096139;28;20224;-70
2021/04/22 04:14:54;;;;;;;6.50;5.67;;;6.20;87.80;;;;;;5099152;28;20177;-69
2021/04/22 04:17:20;;;;;;;9.00;5.97;;;6.20;88.10;;;;;;5098247;28;20205;-69
2021/04/22 04:19:46;;;;;;;10.17;6.03;;;6.20;88.60;;;;;;5094211;28;20266;-70
2021/04/22 04:22:12;;;;;;;7.37;5.17;;;6.20;88.80;;;;;;5100985;28;20204;-71
2021/04/22 04:24:38;;;;;;;10.67;6.90;;;6.30;88.70;;;;;;5097560;28;20570;-69
2021/04/22 04:27:04;;;;;;;7.93;5.30;;;6.30;88.80;;;;;;5102882;28;20181;-69
2021/04/22 04:29:29;;;;;;;8.67;5.77;;;6.30;88.60;;;;;;5101839;28;20644;-69
2021/04/22 04:31:55;;;;;;;9.57;6.07;;;6.40;88.60;;;;;;5098910;28;20194;-71
2021/04/22 04:34:24;;;;;;;12.17;7.23;;;6.40;88.60;;;;;;5096920;28;20186;-71
2021/04/22 04:36:49;;;;;;;17.87;6.53;;;6.50;88.40;;;;;;5100223;28;20265;-71
2021/04/22 04:39:19;;;;;;;10.87;7.53;;;6.50;88.30;;;;;;5100098;28;20277;-70
2021/04/22 04:41:45;;;;;;;14.70;7.90;;;6.60;88.40;;;;;;5102312;28;20596;-69
2021/04/22 04:44:11;;;;;;;16.70;8.50;;;6.60;88.80;;;;;;5099923;28;20186;-68
2021/04/22 04:46:38;;;;;;;11.60;8.00;;;6.60;88.70;;;;;;5102036;28;20177;-68
2021/04/22 04:49:04;;;;;;;13.10;7.87;;;6.70;88.50;;;;;;5098903;28;20206;-68
2021/04/22 04:51:30;;;;;;;8.43;6.10;;;6.70;88.60;;;;;;5104703;28;20250;-70
2021/04/22 04:53:56;;;;;;;9.03;6.93;;;6.70;88.40;;;;;;5099401;28;20186;-72
2021/04/22 04:56:22;;;;;;;9.70;6.70;;;6.80;88.40;;;;;;5103492;28;20262;-71
2021/04/22 04:58:49;;;;;;;9.10;6.00;;;6.80;88.50;;;;;;5099359;28;20189;-71
2021/04/22 05:01:15;;;;;;;13.57;6.40;;;6.80;88.80;;;;;;5104088;28;20177;-70
2021/04/22 05:03:41;;;;;;;7.60;6.70;;;6.90;88.80;;;;;;5102536;28;20181;-71
2021/04/22 05:06:07;;;;;;;9.23;6.63;;;6.90;88.70;;;;;;5096581;28;20673;-72
2021/04/22 05:08:33;;;;;;;10.67;7.23;;;7.00;88.50;;;;;;5098690;28;20205;-68
2021/04/22 05:11:00;;;;;;;9.67;6.47;;;7.00;88.50;;;;;;5101163;28;20185;-67
2021/04/22 05:13:26;;;;;;;12.13;6.93;;;7.10;88.40;;;;;;5096775;28;20209;-70
2021/04/22 05:15:52;;;;;;;9.70;6.33;;;7.10;88.40;;;;;;5097673;28;20206;-68
2021/04/22 05:18:18;;;;;;;10.23;6.70;;;7.20;88.30;;;;;;5097203;28;20661;-70
2021/04/22 05:20:43;;;;;;;8.43;6.40;;;7.20;88.10;;;;;;5097198;28;20182;-70
2021/04/22 05:23:09;;;;;;;11.10;6.07;;;7.30;87.90;;;;;;5099906;28;20204;-70
2021/04/22 05:25:34;;;;;;;7.27;6.47;;;7.30;87.80;;;;;;5084326;28;20238;-69
2021/04/22 05:28:00;;;;;;;11.67;7.30;;;7.40;87.60;;;;;;5096877;28;20210;-68
2021/04/22 05:30:26;;;;;;;14.07;7.40;;;7.40;87.50;;;;;;5101547;28;20197;-68
2021/04/22 05:32:52;;;;;;;7.80;5.93;;;7.50;87.40;;;;;;5100389;28;20237;-69
2021/04/22 05:35:18;;;;;;;12.13;7.77;;;7.50;87.40;;;;;;5094574;28;20193;-70
2021/04/22 05:37:43;;;;;;;10.03;7.20;;;7.60;87.10;;;;;;5101877;28;21767;-71
2021/04/22 05:40:10;;;;;;;9.27;7.03;;;7.60;87.10;;;;;;5100404;28;20585;-68
2021/04/22 05:42:36;;;;;;;9.60;6.87;;;7.70;87.00;;;;;;5097039;28;20993;-68
2021/04/22 05:45:03;;;;;;;11.30;6.87;;;7.80;87.00;;;;;;5099374;28;20190;-71
2021/04/22 05:47:29;;;;;;;9.87;6.23;;;7.80;86.80;;;;;;5102420;28;20219;-69
2021/04/22 05:49:55;;;;;;;9.20;5.83;;;7.90;86.60;;;;;;5101229;28;20308;-70
2021/04/22 05:52:20;;;;;;;9.03;5.67;;;7.90;86.20;;;;;;5102132;28;20250;-70
2021/04/22 05:54:46;;;;;;;6.57;5.23;;;8.00;86.10;;;;;;5102730;28;20205;-69
2021/04/22 05:57:12;;;;;;;9.80;6.10;;;8.00;86.10;;;;;;5099443;28;20182;-69
2021/04/22 05:59:37;;;;;;;14.53;6.27;;;8.10;86.10;;;;;;5084805;28;20249;-69
2021/04/22 06:02:03;;;;;;;9.50;5.70;;;8.20;86.00;;;;;;5099352;28;20185;-70
2021/04/22 06:04:29;;;;;;;5.13;4.63;;;8.20;85.70;;;;;;5102007;28;20177;-71
2021/04/22 06:06:55;;;;;;;8.37;6.17;;;8.30;85.70;;;;;;5098254;28;20178;-71
2021/04/22 06:09:20;;;;;;;14.57;6.63;;;8.40;85.70;;;;;;5099862;28;20729;-72
2021/04/22 06:11:46;;;;;;;6.30;5.70;;;8.40;85.50;;;;;;5094841;28;20189;-72
2021/04/22 06:14:12;;;;;;;11.80;6.00;;;8.50;85.50;;;;;;5101533;28;20565;-70
2021/04/22 06:16:37;;;;;;;10.57;6.03;;;8.60;85.20;;;;;;5097420;28;20242;-70
2021/04/22 06:19:05;;;;;;;8.87;5.90;;;8.70;85.20;;;;;;5100247;28;20208;-69
2021/04/22 06:21:30;;;;;;;6.87;6.17;;;8.70;85.20;;;;;;5098793;28;20214;-69
2021/04/22 06:23:56;;;;;;;9.77;6.80;;;8.80;85.00;;;;;;5102748;28;20228;-69
2021/04/22 06:26:22;;;;;;;11.77;6.60;;;8.90;84.70;;;;;;5097667;28;20208;-70
2021/04/22 06:28:52;;;;;;;9.50;7.07;;;9.00;84.40;;;;;;5102827;28;20212;-70
2021/04/22 06:31:18;;;;;;;6.73;6.07;;;9.10;84.20;;;;;;5098662;28;20213;-69
2021/04/22 06:33:44;;;;;;;8.33;6.27;;;9.20;84.10;;;;;;5103033;28;20589;-70
2021/04/22 06:36:10;;;;;;;9.30;6.40;;;9.30;83.60;;;;;;5100463;28;20189;-70
2021/04/22 06:38:36;;;;;;;10.87;7.30;;;9.40;83.30;;;;;;5105756;28;20621;-70
2021/04/22 06:41:02;;;;;;;10.50;6.53;;;9.50;82.40;;;;;;5102947;28;20276;-70
2021/04/22 06:43:28;;;;;;;7.23;6.17;;;9.60;82.40;;;;;;5085603;28;20181;-71
2021/04/22 06:45:53;;;;;;;6.60;5.90;;;9.70;82.40;;;;;;5103263;28;20713;-70
2021/04/22 06:48:19;;;;;;;9.57;5.47;;;9.80;82.00;;;;;;5102872;28;20293;-68
2021/04/22 06:50:45;;;;;;;6.00;5.20;;;9.90;81.90;;;;;;5100118;28;20200;-71
2021/04/22 06:53:11;;;;;;;16.80;5.83;;;10.10;81.60;;;;;;5103559;28;20235;-70
2021/04/22 06:55:38;;;;;;;6.70;5.53;;;10.20;81.30;;;;;;5099762;28;21124;-70
2021/04/22 06:58:05;;;;;;;8.95;5.90;;;10.30;81.00;;;;;;5101680;28;20207;-71
2021/04/22 07:00:38;;;;;;;8.30;6.38;;;10.40;80.50;;;;;;5102574;28;20186;-71
2021/04/22 07:03:04;;;;;;;8.07;6.35;;;10.50;79.60;;;;;;5103564;28;20543;-69
2021/04/22 07:05:30;;;;;;;6.67;5.83;;;10.60;79.50;;;;;;5105494;28;20189;-69
2021/04/22 07:07:56;;;;;;;7.68;6.38;;;10.70;79.10;;;;;;5100484;28;20186;-70
2021/04/22 07:10:22;;;;;;;7.13;6.30;;;10.70;77.30;;;;;;5099660;28;20189;-70
2021/04/22 07:12:48;;;;;;;9.07;5.70;;;10.80;78.10;;;;;;5098225;28;20193;-69
2021/04/22 07:15:14;;;;;;;7.27;6.00;;;10.90;78.20;;;;;;5098743;28;20189;-69
2021/04/22 07:17:40;;;;;;;8.82;6.07;;;11.00;78.20;;;;;;5097627;28;20682;-70
2021/04/22 07:20:10;;;;;;;7.82;5.97;;;11.00;77.70;;;;;;5096844;28;20670;-70
2021/04/22 07:22:36;;;;;;;7.60;6.35;;;11.10;77.50;;;;;;5096526;28;20175;-70
2021/04/22 07:25:02;;;;;;;9.73;5.88;;;11.20;77.80;;;;;;5101820;28;20182;-71
2021/04/22 07:27:28;;;;;;;6.82;5.82;;;11.30;77.40;;;;;;5094444;28;20182;-71
2021/04/22 07:29:54;;;;;;;7.15;5.40;;;11.40;77.10;;;;;;5078869;28;20259;-70
2021/04/22 07:32:20;;;;;;;9.77;7.03;;;11.50;77.50;;;;;;5097003;28;20186;-70
2021/04/22 07:34:47;;;;;;;7.28;5.88;;;11.60;76.70;;;;;;5099357;28;20174;-69
2021/04/22 07:37:14;;;;;;;8.65;6.55;;;11.70;77.10;;;;;;5097262;28;20173;-70
2021/04/22 07:39:41;;;;;;;8.85;5.95;;;11.80;77.00;;;;;;5096772;28;20342;-71
2021/04/22 07:42:07;;;;;;;8.10;6.22;;;11.90;77.00;;;;;;5095586;28;20207;-70
2021/04/22 07:44:33;;;;;;;5.93;5.22;;;12.00;77.10;;;;;;5097646;28;20605;-69
2021/04/22 07:46:59;;;;;;;6.85;5.78;;;12.10;76.80;;;;;;5094512;28;20177;-69
2021/04/22 07:49:25;;;;;;;8.05;5.80;;;12.30;76.20;;;;;;5097825;28;20292;-68
2021/04/22 07:51:51;;;;;;;8.65;5.82;;;12.30;76.30;;;;;;5097119;28;20268;-68
2021/04/22 07:54:17;;;;;;;7.43;6.15;;;12.50;75.80;;;;;;5097842;28;20257;-69
2021/04/22 07:56:43;;;;;;;6.75;5.93;;;12.60;74.40;;;;;;5094545;28;20177;-69
2021/04/22 07:59:08;;;;;;;7.22;5.72;;;12.70;74.80;;;;;;5076966;28;20582;-70
2021/04/22 08:01:34;;;;;;;9.77;6.63;;;12.80;75.20;;;;;;5095625;28;20182;-69
2021/04/22 08:04:00;;;;;;;9.63;5.65;;;12.90;75.00;;;;;;5094822;28;20190;-69
2021/04/22 08:06:26;;;;;;;9.50;5.70;;;13.10;74.10;;;;;;5091231;28;20276;-70
2021/04/22 08:08:51;;;;;;;9.88;6.05;;;13.20;74.40;;;;;;5093842;28;20685;-70
2021/04/22 08:11:17;;;;;;;6.68;5.78;;;13.40;73.40;;;;;;5096385;28;20225;-69
2021/04/22 08:13:43;;;;;;;6.13;5.63;;;13.60;73.60;;;;;;5098336;28;20186;-69
2021/04/22 08:18:53;;;;;;;16.55;6.35;;;13.90;72.90;;;;;;5094400;28;20669;-69
2021/04/22 08:21:18;;;;;;;11.07;6.13;;;14.10;72.80;;;;;;5087864;28;20179;-69
2021/04/22 08:23:44;;;;;;;7.38;6.07;;;14.30;72.70;;;;;;5095558;28;20239;-70
2021/04/22 08:26:16;;;;;;;7.35;5.20;;;14.50;73.00;;;;;;5086172;28;20191;-70
2021/04/22 08:28:42;;;;;;;6.65;6.00;;;14.70;72.10;;;;;;5088930;28;20214;-69
2021/04/22 08:31:13;;;;;;;6.05;5.45;;;14.90;70.80;;;;;;5088028;28;20201;-69
2021/04/22 08:33:40;;;;;;;9.65;5.82;;;15.10;70.70;;;;;;5099439;28;20174;-68
2021/04/22 08:36:08;;;;;;;5.43;4.93;;;15.30;70.40;;;;;;5093457;28;20178;-67
2021/04/22 08:38:34;;;;;;;8.80;5.35;;;15.40;69.60;;;;;;5097518;28;20216;-69
2021/04/22 08:41:01;;;;;;;7.97;5.00;;;15.60;68.40;;;;;;5095652;28;20201;-68
2021/04/22 08:43:27;;;;;;;6.07;5.40;;;15.70;68.30;;;;;;5098114;28;20196;-68
2021/04/22 08:45:53;;;;;;;6.05;5.47;;;15.80;67.70;;;;;;5095255;28;20182;-68
2021/04/22 08:48:20;;;;;;;4.88;4.38;;;16.10;66.80;;;;;;5091730;28;20260;-68
2021/04/22 08:50:47;;;;;;;3.80;3.53;;;16.20;65.80;;;;;;5091091;28;20193;-68
2021/04/22 08:53:18;;;;;;;5.30;3.97;;;16.30;65.00;;;;;;5096784;28;20209;-68
2021/04/22 08:55:44;;;;;;;4.25;3.92;;;16.50;64.50;;;;;;5087896;28;20200;-68
2021/04/22 08:58:10;;;;;;;5.95;3.17;;;16.70;64.10;;;;;;5092397;28;20272;-68
2021/04/22 09:00:56;;;;;;;4.00;3.70;;;16.90;62.70;;;;;;5091512;28;20310;-68
2021/04/22 09:03:22;;;;;;;10.55;3.47;;;17.00;61.90;;;;;;5090806;28;20181;-68
2021/04/22 09:05:48;;;;;;;4.25;3.58;;;17.10;62.80;;;;;;5096624;28;20185;-68
2021/04/22 09:08:14;;;;;;;3.53;3.33;;;17.20;62.50;;;;;;5090136;28;20201;-67
2021/04/22 09:10:40;;;;;;;3.33;2.50;;;17.40;62.10;;;;;;5097831;28;20198;-68
2021/04/22 09:13:11;;;;;;;3.05;2.67;;;17.70;62.00;;;;;;5093056;28;20191;-69
2021/04/22 09:15:39;;;;;;;4.00;1.92;;;17.90;59.00;;;;;;5093458;28;20201;-69
2021/04/22 09:18:12;;;;;;;1.25;1.15;;;18.10;57.20;;;;;;5089687;28;20182;-69
2021/04/22 09:20:40;;;;;;;0.50;0.50;;;18.20;54.10;;;;;;5097307;28;20615;-69
2021/04/22 09:23:19;;;;;;;0.63;0.63;;;18.30;54.10;;;;;;5094423;28;20207;-69
2021/04/22 09:25:46;;;;;;;0.70;0.70;;;18.20;52.10;;;;;;5097698;28;20190;-69
2021/04/22 09:28:12;;;;;;;0.60;0.60;;;18.00;51.40;;;;;;5098693;28;20254;-69
2021/04/22 09:30:45;;;;;;;0.70;0.70;;;18.20;51.50;;;;;;5098438;28;20190;-69
2021/04/22 09:33:25;;;;;;;0.70;0.70;;;18.10;49.20;;;;;;5099301;28;20243;-68
2021/04/22 09:35:52;;;;;;;0.70;0.70;;;18.00;50.10;;;;;;5098026;28;20980;-69
2021/04/22 09:38:19;;;;;;;0.63;0.63;;;18.50;51.80;;;;;;5099285;28;20185;-68
2021/04/22 09:40:45;;;;;;;0.60;0.60;;;19.30;50.20;;;;;;5100274;28;20670;-68
2021/04/22 09:43:15;;;;;;;0.95;0.75;;;20.00;50.10;;;;;;5099403;28;20186;-68
2021/04/22 09:45:46;;;;;;;1.33;0.90;;;20.70;48.60;;;;;;5101985;28;20184;-69
2021/04/22 09:48:32;;;;;;;0.70;0.70;;;21.20;48.10;;;;;;5079616;28;20209;-69
2021/04/22 09:51:02;;;;;;;0.73;0.73;;;21.60;46.00;;;;;;5099147;28;20209;-68
2021/04/22 09:53:28;;;;;;;0.70;0.70;;;22.00;46.60;;;;;;5099968;28;20243;-69
2021/04/22 09:56:07;;;;;;;0.73;0.70;;;22.50;44.20;;;;;;5100381;28;20185;-68
2021/04/22 09:58:33;;;;;;;1.30;1.02;;;22.90;44.60;;;;;;5099138;28;20174;-70
2021/04/22 10:01:02;;;;;;;2.45;0.70;;;23.50;43.20;;;;;;5101693;28;20188;-68
2021/04/22 10:03:28;;;;;;;0.55;0.55;;;23.80;44.60;;;;;;5100391;28;20610;-70
2021/04/22 10:06:03;;;;;;;0.50;0.50;;;23.80;43.90;;;;;;5100910;28;20181;-68
2021/04/22 10:08:30;;;;;;;1.10;1.10;;;24.00;45.10;;;;;;5101792;28;20217;-70
2021/04/22 10:11:03;;;;;;;0.57;0.57;;;24.50;42.90;;;;;;5097032;28;20181;-70
2021/04/22 10:13:46;;;;;;;0.77;0.60;;;24.90;43.50;;;;;;5098214;28;20266;-67
2021/04/22 10:16:12;;;;;;;0.85;0.60;;;25.00;43.30;;;;;;5097669;28;20693;-67
2021/04/22 10:18:42;;;;;;;0.77;0.77;;;24.90;42.60;;;;;;5101549;28;20177;-71
2021/04/22 10:21:08;;;;;;;0.50;0.50;;;24.80;43.00;;;;;;5102568;28;20181;-67
2021/04/22 10:23:34;;;;;;;0.70;0.70;;;24.60;43.30;;;;;;5101226;28;20181;-68
2021/04/22 10:25:59;;;;;;;0.45;0.45;;;24.50;45.10;;;;;;5098603;28;20185;-68
2021/04/22 10:28:26;;;;;;;0.70;0.70;;;24.70;42.80;;;;;;5101997;28;20697;-70
2021/04/22 10:30:55;;;;;;;1.33;0.60;;;24.50;43.50;;;;;;5103291;28;20201;-70
2021/04/22 10:33:22;;;;;;;0.50;0.50;;;24.60;43.10;;;;;;5105794;28;20177;-67
2021/04/22 10:35:49;;;;;;;0.70;0.70;;;24.70;43.20;;;;;;5101738;28;20186;-69
2021/04/22 10:38:14;;;;;;;1.48;0.60;;;24.90;43.70;;;;;;5105451;28;20181;-68
2021/04/22 10:40:44;;;;;;;0.50;0.50;;;25.00;41.70;;;;;;5104456;28;20557;-68
2021/04/22 10:43:17;;;;;;;0.45;0.45;;;25.10;43.30;;;;;;5103122;28;20213;-70
2021/04/22 10:45:43;;;;;;;1.30;0.40;;;24.90;42.20;;;;;;5104706;28;20330;-69
2021/04/22 10:48:09;;;;;;;0.50;0.50;;;24.70;42.10;;;;;;5101377;28;20177;-67
2021/04/22 10:50:40;;;;;;;0.57;0.57;;;24.60;43.30;;;;;;5104631;28;20209;-70
2021/04/22 10:53:26;;;;;;;0.90;0.65;;;24.70;41.40;;;;;;5104907;28;20226;-69
2021/04/22 10:55:55;;;;;;;0.45;0.45;;;24.70;42.50;;;;;;5085713;28;20182;-69
2021/04/22 10:58:43;;;;;;;0.68;0.68;;;25.00;42.60;;;;;;5102311;28;20178;-70
2021/04/22 11:01:12;;;;;;;0.60;0.60;;;25.10;42.10;;;;;;5102983;28;20209;-69
2021/04/22 11:03:47;;;;;;;0.80;0.80;;;25.20;43.80;;;;;;5100409;28;20336;-70
2021/04/22 11:06:31;;;;;;;0.50;0.50;;;25.10;41.60;;;;;;5098364;28;20616;-70
2021/04/22 11:08:56;;;;;;;0.88;0.88;;;24.80;42.60;;;;;;5100654;28;20237;-69
2021/04/22 11:11:34;;;;;;;2.58;0.90;;;24.50;42.90;;;;;;5099414;28;20275;-69
2021/04/22 11:14:15;;;;;;;0.63;0.63;;;24.30;42.60;;;;;;5104481;28;20670;-68
2021/04/22 11:16:45;;;;;;;1.00;1.00;;;24.30;43.70;;;;;;5096700;28;20541;-69
2021/04/22 11:19:25;;;;;;;0.93;0.82;;;24.50;42.20;;;;;;5086570;28;20724;-69
2021/04/22 11:21:59;;;;;;;1.85;0.80;;;24.30;42.40;;;;;;5101347;28;20185;-68
2021/04/22 11:24:51;;;;;;;1.33;0.75;;;24.10;43.20;;;;;;5101906;28;20219;-68
2021/04/22 11:27:16;;;;;;;0.80;0.80;;;23.90;43.80;;;;;;5100285;28;20177;-68
2021/04/22 11:29:48;;;;;;;0.95;0.57;;;23.60;44.50;;;;;;5102639;28;20261;-69
2021/04/22 11:32:15;;;;;;;0.80;0.80;;;23.60;44.60;;;;;;5093694;28;20193;-68
2021/04/22 11:34:41;;;;;;;0.88;0.88;;;23.60;43.60;;;;;;5101133;28;20189;-68
2021/04/22 11:37:17;;;;;;;0.77;0.77;;;23.40;45.00;;;;;;5095958;28;20182;-70
2021/04/22 11:39:43;;;;;;;0.90;0.90;;;23.30;44.20;;;;;;5094820;28;20176;-70
2021/04/22 11:42:09;;;;;;;0.90;0.70;;;23.20;47.00;;;;;;5094060;28;20197;-69
2021/04/22 11:44:56;;;;;;;0.65;0.65;;;23.10;45.20;;;;;;5100721;28;20204;-69
2021/04/22 11:47:32;;;;;;;0.55;0.55;;;23.10;45.40;;;;;;5081567;28;20186;-68
2021/04/22 11:50:09;;;;;;;0.60;0.60;;;23.20;44.80;;;;;;5102485;28;20200;-70
2021/04/22 11:52:51;;;;;;;2.63;0.60;;;23.70;43.70;;;;;;5098198;28;20696;-68
2021/04/22 11:55:24;;;;;;;0.60;0.50;;;24.10;42.70;;;;;;5096144;28;20661;-70
2021/04/22 11:58:09;;;;;;;0.60;0.60;;;24.20;42.30;;;;;;5101237;28;20741;-69
2021/04/22 12:00:51;;;;;;;0.50;0.50;;;24.20;43.20;;;;;;5101399;28;20950;-70
2021/04/22 12:03:22;;;;;;;0.60;0.60;;;24.10;42.30;;;;;;5097342;28;20182;-71
2021/04/22 12:05:56;;;;;;;1.42;0.60;;;24.00;43.10;;;;;;5097468;28;20178;-68
2021/04/22 12:08:29;;;;;;;1.17;0.60;;;23.90;42.50;;;;;;5098410;28;20253;-69
2021/04/22 12:10:55;;;;;;;0.60;0.60;;;24.00;42.30;;;;;;5095666;28;21476;-69
2021/04/22 12:13:21;;;;;;;0.75;0.75;;;24.20;44.00;;;;;;5098750;28;20190;-69
2021/04/22 12:15:50;;;;;;;0.60;0.60;;;24.70;43.90;;;;;;5100690;28;20261;-69
2021/04/22 12:18:29;;;;;;;0.60;0.60;;;24.90;42.70;;;;;;5098292;28;20275;-69
2021/04/22 12:21:15;;;;;;;1.05;0.60;;;25.00;41.10;;;;;;5097282;28;20259;-69
2021/04/22 12:23:54;;;;;;;0.40;0.40;;;25.00;40.60;;;;;;5098312;28;20235;-69
2021/04/22 12:26:31;;;;;;;0.50;0.50;;;24.50;41.70;;;;;;5090517;28;20189;-69
2021/04/22 12:29:02;;;;;;;0.73;0.73;;;24.50;41.90;;;;;;5099749;28;22031;-68
2021/04/22 12:31:33;;;;;;;0.63;0.63;;;24.70;42.30;;;;;;5094298;28;20632;-70
2021/04/22 12:34:23;;;;;;;0.50;0.50;;;25.10;41.20;;;;;;5092989;28;20209;-70
2021/04/22 12:37:15;;;;;;;0.57;0.43;;;25.10;39.70;;;;;;5095589;28;20186;-69
2021/04/22 12:39:46;;;;;;;0.45;0.40;;;24.40;39.10;;;;;;5066109;28;20306;-69
2021/04/22 12:42:32;;;;;;;0.50;0.50;;;24.10;40.10;;;;;;5070822;28;20194;-69
2021/04/22 12:45:21;;;;;;;0.50;0.50;;;24.40;40.40;;;;;;5069242;28;20223;-69
2021/04/22 12:48:04;;;;;;;0.52;0.52;;;24.40;42.30;;;;;;5060853;28;20186;-70
2021/04/22 12:50:43;;;;;;;0.60;0.60;;;24.80;42.30;;;;;;5064482;28;20706;-68
2021/04/22 12:53:30;;;;;;;0.40;0.40;;;25.20;41.50;;;;;;5066378;28;20356;-69
2021/04/22 12:56:00;;;;;;;0.77;0.50;;;25.50;40.20;;;;;;5052655;28;20198;-69
2021/04/22 12:58:32;;;;;;;1.00;0.50;;;25.60;42.40;;;;;;5066483;28;20198;-70